Aviation Digital Data Service (ADDS)

Output produced by TAFs form (1607 UTC 26 November 2014)
found at http://www.aviationweather.gov/adds/tafs/
 
KMDT 261520Z 2615/2712 00000KT 3/4SM -SN OVC007 
     TEMPO 2615/2618 1/2SM SN OVC003 
     FM262300 31010KT 3SM -SN OVC015 
     FM270300 32006KT P6SM OVC020 
     FM270600 31004KT P6SM SCT040